Time;durP1;ratioP1;P1;durP2;ratioP2;P2;SDS_P1;SDS_P2;PMS_P1;PMS_P2;Temp;Humidity;BMP_temperature;BMP_pressure;BME280_temperature;BME280_humidity;BME280_pressure;Samples;Min_cycle;Max_cycle;Signal;HPM_P1;HPM_P2
2022/04/22 00:02:07;;;;;;;13.23;7.13;;;;;;;13.67;52.62;101163.06;5137623;28;20819;-45
2022/04/22 00:04:41;;;;;;;9.35;6.80;;;;;;;13.65;52.55;101162.38;5139843;28;20551;-43
2022/04/22 00:07:41;;;;;;;14.93;7.55;;;;;;;13.64;52.69;101162.56;5143168;28;20515;-45
2022/04/22 00:10:13;;;;;;;11.40;7.00;;;;;;;13.64;52.68;101168.69;5132916;28;20458;-44
2022/04/22 00:12:46;;;;;;;16.40;7.00;;;;;;;13.62;53.00;101165.34;5140579;28;20466;-45
2022/04/22 00:15:20;;;;;;;8.73;6.85;;;;;;;13.61;52.93;101163.69;5134291;28;20440;-44
2022/04/22 00:17:52;;;;;;;13.93;7.07;;;;;;;13.28;53.04;101131.75;5133067;28;20924;-44
2022/04/22 00:20:26;;;;;;;9.47;6.53;;;;;;;13.59;53.10;101165.66;5134646;28;20994;-45
2022/04/22 00:22:59;;;;;;;9.02;6.95;;;;;;;13.57;53.24;101165.03;5135155;28;20419;-44
2022/04/22 00:25:31;;;;;;;10.98;6.55;;;;;;;13.56;53.11;101160.69;5141149;28;20427;-46
2022/04/22 00:28:03;;;;;;;10.05;6.38;;;;;;;13.53;53.49;101161.88;5139732;28;20435;-49
2022/04/22 00:30:36;;;;;;;8.07;6.35;;;;;;;13.50;53.50;101166.63;5137429;28;20436;-47
2022/04/22 00:33:08;;;;;;;10.27;5.97;;;;;;;13.49;53.58;101159.69;5141866;28;20520;-46
2022/04/22 00:35:43;;;;;;;8.95;6.50;;;;;;;13.50;53.64;101150.72;5140106;28;20471;-44
2022/04/22 00:38:16;;;;;;;9.45;6.18;;;;;;;13.51;53.58;101163.00;5143901;28;20425;-43
2022/04/22 00:40:49;;;;;;;7.75;5.68;;;;;;;13.29;53.87;101143.22;5143717;28;20421;-43
2022/04/22 00:43:23;;;;;;;7.45;5.60;;;;;;;13.47;53.97;101166.97;5138318;28;20740;-44
2022/04/22 00:45:57;;;;;;;8.90;5.32;;;;;;;13.48;53.69;101160.69;5137294;28;21066;-45
2022/04/22 00:48:29;;;;;;;7.22;5.70;;;;;;;13.49;53.90;101154.38;5136016;28;20410;-45
2022/04/22 00:51:05;;;;;;;11.93;5.30;;;;;;;13.45;54.09;101143.25;5134139;28;20421;-46
2022/04/22 00:53:40;;;;;;;10.27;5.10;;;;;;;13.50;54.05;101142.75;5138032;28;20440;-50
2022/04/22 00:56:13;;;;;;;10.63;5.68;;;;;;;13.47;54.19;101146.59;5133308;28;20463;-48
2022/04/22 00:58:48;;;;;;;11.83;5.07;;;;;;;13.49;54.07;101127.84;5138205;28;20436;-46
2022/04/22 01:01:21;;;;;;;8.10;4.82;;;;;;;13.58;53.84;101142.78;5138917;28;20890;-45
2022/04/22 01:09:48;;;;;;;6.63;5.10;;;;;;;13.59;54.34;101123.22;5138073;28;20425;-49
2022/04/22 01:12:20;;;;;;;11.40;5.03;;;;;;;13.58;54.56;101121.56;5136623;28;20425;-48
2022/04/22 01:14:53;;;;;;;8.27;4.97;;;;;;;13.57;54.49;101111.94;5137345;28;20399;-46
2022/04/22 01:17:26;;;;;;;8.10;4.82;;;;;;;13.64;54.53;101112.94;5136751;28;20427;-49
2022/04/22 01:19:58;;;;;;;8.77;4.47;;;;;;;13.67;54.42;101112.63;5137151;28;20434;-46
2022/04/22 01:22:32;;;;;;;5.63;4.45;;;;;;;13.70;54.34;101120.25;5134891;27;20507;-49
2022/04/22 01:25:06;;;;;;;7.03;4.93;;;;;;;13.68;54.47;101108.97;5134446;28;20856;-52
2022/04/22 01:27:39;;;;;;;8.63;3.90;;;;;;;13.56;54.68;101103.16;5135649;28;20414;-53
2022/04/22 01:30:12;;;;;;;7.30;3.90;;;;;;;13.57;54.60;101104.00;5139660;28;20414;-51
2022/04/22 01:32:45;;;;;;;10.77;4.70;;;;;;;13.44;54.49;101079.72;5140517;28;20867;-44
2022/04/22 01:35:17;;;;;;;7.70;4.10;;;;;;;13.56;54.75;101097.84;5134366;28;20486;-44
2022/04/22 01:37:51;;;;;;;8.38;3.88;;;;;;;13.54;54.79;101091.88;5129267;27;20957;-44
2022/04/22 01:40:24;;;;;;;6.70;4.13;;;;;;;13.55;54.62;101095.34;5136878;28;20426;-48
2022/04/22 01:42:56;;;;;;;9.10;4.57;;;;;;;13.50;54.72;101089.69;5134446;28;20598;-46
2022/04/22 01:45:29;;;;;;;10.32;4.55;;;;;;;13.58;54.50;101100.34;5151392;28;20840;-46
2022/04/22 01:48:02;;;;;;;7.20;3.70;;;;;;;13.52;54.60;101087.72;5138726;28;20448;-47
2022/04/22 01:50:34;;;;;;;5.05;3.72;;;;;;;13.51;54.57;101088.72;5140280;28;20422;-47
2022/04/22 01:53:08;;;;;;;9.35;4.10;;;;;;;13.45;54.42;101084.06;5139310;28;20451;-47
2022/04/22 01:55:40;;;;;;;10.20;4.60;;;;;;;13.42;54.83;101092.34;5130521;28;20425;-47
2022/04/22 01:58:13;;;;;;;5.57;4.10;;;;;;;13.43;54.52;101099.31;5135453;28;20507;-46
2022/04/22 02:00:45;;;;;;;7.40;4.15;;;;;;;13.42;54.47;101095.00;5135441;28;20708;-45
2022/04/22 02:03:17;;;;;;;7.47;3.95;;;;;;;13.37;54.49;101093.63;5131547;28;20511;-45
2022/04/22 02:05:50;;;;;;;8.88;4.50;;;;;;;13.29;54.68;101093.63;5138764;28;20476;-50
2022/04/22 02:08:24;;;;;;;8.63;4.65;;;;;;;13.11;54.61;101075.13;5133257;28;20436;-46
2022/04/22 02:10:56;;;;;;;7.20;4.63;;;;;;;12.96;54.56;101052.88;5141410;28;20506;-45
2022/04/22 02:13:28;;;;;;;8.20;5.03;;;;;;;13.21;54.60;101098.88;5140702;28;20448;-47
2022/04/22 02:16:01;;;;;;;9.05;5.45;;;;;;;13.19;54.59;101090.22;5137908;27;20411;-46
2022/04/22 02:18:36;;;;;;;10.63;5.72;;;;;;;13.19;54.60;101094.72;5133814;28;20815;-45
2022/04/22 02:21:12;;;;;;;10.48;5.95;;;;;;;13.22;54.40;101103.19;5134329;28;20422;-45
2022/04/22 02:23:46;;;;;;;9.43;6.18;;;;;;;13.19;54.58;101103.50;5137066;28;20497;-45
2022/04/22 02:26:19;;;;;;;9.33;5.67;;;;;;;13.17;54.45;101100.19;5136724;28;20488;-45
2022/04/22 02:28:50;;;;;;;9.32;5.55;;;;;;;13.14;54.44;101095.22;5132340;28;20821;-45
2022/04/22 02:31:22;;;;;;;11.38;5.35;;;;;;;13.12;54.56;101090.06;5129390;28;20521;-45
2022/04/22 02:33:55;;;;;;;9.10;5.50;;;;;;;13.07;54.54;101097.69;5132980;28;20434;-48
2022/04/22 02:36:27;;;;;;;8.85;6.15;;;;;;;13.06;54.57;101103.13;5139494;28;20425;-44
2022/04/22 02:39:01;;;;;;;9.80;5.80;;;;;;;12.97;54.64;101096.13;5129232;28;20913;-47
2022/04/22 02:47:13;;;;;;;9.52;7.00;;;;;;;12.81;54.84;101097.72;5132676;28;20423;-45
2022/04/22 02:49:45;;;;;;;13.82;7.55;;;;;;;12.74;55.06;101088.72;5139440;28;20427;-44
2022/04/22 02:52:18;;;;;;;9.32;7.25;;;;;;;12.68;55.11;101092.84;5139847;27;20422;-47
2022/04/22 02:54:52;;;;;;;12.57;7.53;;;;;;;12.57;55.33;101090.44;5134280;28;20412;-47
2022/04/22 02:57:24;;;;;;;12.03;7.70;;;;;;;12.48;55.15;101079.97;5137815;28;20456;-45
2022/04/22 02:59:57;;;;;;;10.70;8.05;;;;;;;12.52;55.29;101089.28;5139824;28;20509;-46
2022/04/22 03:02:30;;;;;;;15.25;8.90;;;;;;;12.48;55.27;101093.19;5132995;28;20415;-46
2022/04/22 03:05:02;;;;;;;11.73;8.05;;;;;;;12.46;55.30;101086.25;5135277;28;20789;-44
2022/04/22 03:07:34;;;;;;;12.13;8.18;;;;;;;12.39;55.49;101090.53;5130771;28;20426;-48
2022/04/22 03:10:10;;;;;;;11.27;7.90;;;;;;;12.35;55.72;101089.16;5137891;28;20418;-48
2022/04/22 03:12:43;;;;;;;12.00;8.30;;;;;;;12.30;55.75;101083.50;5130494;28;20809;-46
2022/04/22 03:15:16;;;;;;;13.35;8.77;;;;;;;12.26;55.69;101082.13;5133503;28;20443;-45
2022/04/22 03:17:49;;;;;;;12.18;8.98;;;;;;;12.27;55.62;101078.50;5132642;27;20425;-43
2022/04/22 03:20:21;;;;;;;15.20;9.20;;;;;;;12.23;55.77;101079.78;5136975;28;20426;-44
2022/04/22 03:22:54;;;;;;;10.07;7.43;;;;;;;12.24;55.88;101081.47;5130776;28;20912;-43
2022/04/22 03:25:27;;;;;;;13.27;9.70;;;;;;;12.19;55.77;101075.78;5132688;28;20444;-48
2022/04/22 03:28:00;;;;;;;15.88;8.90;;;;;;;12.20;55.93;101077.44;5134085;28;20488;-47
2022/04/22 03:30:34;;;;;;;16.42;9.48;;;;;;;12.18;55.82;101079.44;5132794;28;20474;-49
2022/04/22 03:33:06;;;;;;;16.58;9.70;;;;;;;11.70;55.89;101001.28;5140559;28;20429;-46
2022/04/22 03:35:39;;;;;;;13.77;9.70;;;;;;;12.10;56.04;101059.00;5135122;28;20448;-47
2022/04/22 03:38:12;;;;;;;16.58;9.20;;;;;;;12.20;56.12;101072.16;5140227;28;20780;-46
2022/04/22 03:40:46;;;;;;;16.77;11.30;;;;;;;12.21;55.90;101073.84;5135987;28;20419;-46
2022/04/22 03:43:20;;;;;;;13.30;9.98;;;;;;;12.15;56.04;101061.22;5132621;28;20490;-45
2022/04/22 03:45:52;;;;;;;11.00;8.40;;;;;;;12.16;56.18;101066.34;5136545;28;20462;-47
2022/04/22 03:48:24;;;;;;;14.83;8.90;;;;;;;11.54;56.43;100965.78;5128411;28;20462;-48
2022/04/22 03:50:57;;;;;;;27.25;10.93;;;;;;;11.98;56.43;101052.31;5134500;28;20517;-45
2022/04/22 03:53:29;;;;;;;17.13;10.10;;;;;;;12.07;56.41;101061.97;5138290;28;20403;-45
2022/04/22 03:58:51;;;;;;;17.70;11.63;;;;;;;12.12;56.35;101064.19;5132463;28;20443;-45
2022/04/22 04:01:24;;;;;;;18.60;10.82;;;;;;;12.11;56.59;101067.78;5129995;28;20431;-49
2022/04/22 04:03:56;;;;;;;15.23;10.57;;;;;;;12.13;56.55;101065.81;5136994;28;20506;-48
2022/04/22 04:06:29;;;;;;;17.60;11.43;;;;;;;11.79;56.62;101026.81;5137436;28;20406;-44
2022/04/22 04:17:36;;;;;;;20.08;11.80;;;;;;;11.99;56.88;101081.28;5130583;28;20971;-47
2022/04/22 04:23:15;;;;;;;16.83;11.88;;;;;;;11.98;57.03;101076.97;5132893;28;20399;-46
2022/04/22 04:25:50;;;;;;;20.83;12.00;;;;;;;11.96;57.19;101078.94;5134923;28;20462;-47
2022/04/22 04:28:27;;;;;;;21.60;12.30;;;;;;;11.95;57.01;101079.94;5131166;28;20487;-45
2022/04/22 04:30:59;;;;;;;24.92;12.48;;;;;;;11.92;57.29;101074.09;5137110;28;20947;-46
2022/04/22 04:33:32;;;;;;;18.48;12.18;;;;;;;11.93;57.23;101076.59;5137229;28;20417;-43
2022/04/22 04:36:06;;;;;;;21.20;12.80;;;;;;;11.91;57.29;101073.25;5149641;28;20756;-45
2022/04/22 04:38:42;;;;;;;16.70;12.45;;;;;;;11.88;57.50;101073.56;5132684;28;21004;-45
2022/04/22 04:41:15;;;;;;;20.92;12.90;;;;;;;11.89;57.55;101069.97;5130283;28;20417;-43
2022/04/22 04:43:48;;;;;;;21.25;13.35;;;;;;;11.84;57.53;101066.06;5148992;28;20514;-43
2022/04/22 04:46:21;;;;;;;22.13;14.13;;;;;;;11.84;57.71;101076.66;5138606;28;20952;-44
2022/04/22 04:48:56;;;;;;;22.17;13.85;;;;;;;11.69;57.70;101063.13;5148006;28;20487;-44
2022/04/22 04:51:28;;;;;;;26.20;14.77;;;;;;;11.81;57.66;101077.78;5139464;28;20420;-44
2022/04/22 04:54:00;;;;;;;29.73;15.13;;;;;;;11.88;57.67;101070.94;5132490;28;20444;-46
2022/04/22 04:56:33;;;;;;;24.23;15.55;;;;;;;11.87;57.69;101074.56;5134787;28;20488;-44
2022/04/22 04:59:07;;;;;;;26.25;15.40;;;;;;;11.82;57.82;101068.84;5130617;28;20765;-45
2022/04/22 05:01:39;;;;;;;28.35;16.17;;;;;;;11.86;57.79;101069.41;5128028;28;20569;-43
2022/04/22 05:04:12;;;;;;;22.73;15.23;;;;;;;11.85;58.00;101065.94;5130486;28;20458;-45
2022/04/22 05:06:44;;;;;;;24.70;15.38;;;;;;;11.84;58.03;101072.19;5131207;28;20903;-43
2022/04/22 05:09:16;;;;;;;27.58;16.42;;;;;;;11.90;58.05;101076.91;5151852;28;20922;-47
2022/04/22 05:11:49;;;;;;;29.40;16.80;;;;;;;11.92;58.00;101072.31;5142359;28;20463;-44
2022/04/22 05:14:25;;;;;;;26.17;16.15;;;;;;;11.81;58.03;101051.31;5128235;28;20463;-45
2022/04/22 05:16:57;;;;;;;25.30;14.65;;;;;;;12.03;57.97;101075.69;5147472;28;20448;-45
2022/04/22 05:19:29;;;;;;;29.30;16.33;;;;;;;12.03;58.01;101079.16;5148885;28;20415;-44
2022/04/22 05:22:02;;;;;;;25.60;16.05;;;;;;;12.07;58.07;101079.69;5140457;28;20460;-47
2022/04/22 05:24:35;;;;;;;25.90;14.88;;;;;;;12.03;58.12;101071.22;5219947;28;20410;-46
2022/04/22 05:27:07;;;;;;;29.95;16.77;;;;;;;12.06;58.09;101080.66;5147676;28;20415;-47
2022/04/22 05:32:40;;;;;;;23.63;14.98;;;;;;;11.89;58.32;101072.59;5128229;28;20705;-46
2022/04/22 05:35:13;;;;;;;23.02;14.95;;;;;;;11.90;58.29;101078.72;5135038;28;20816;-50
2022/04/22 05:37:48;;;;;;;24.08;15.05;;;;;;;11.92;58.39;101082.88;5128045;28;20423;-48
2022/04/22 05:40:22;;;;;;;27.70;15.48;;;;;;;11.93;58.21;101086.34;5142413;28;20429;-46
2022/04/22 05:42:56;;;;;;;26.57;15.10;;;;;;;11.97;58.15;101083.25;5134690;28;20542;-45
2022/04/22 05:45:30;;;;;;;28.92;15.60;;;;;;;12.03;58.17;101086.28;5129743;28;20428;-46
2022/04/22 05:48:02;;;;;;;24.98;15.27;;;;;;;12.07;58.22;101087.63;5142301;28;20899;-43
2022/04/22 05:50:35;;;;;;;32.10;15.10;;;;;;;12.13;58.20;101082.53;5146355;28;20423;-46
2022/04/22 05:53:07;;;;;;;28.30;15.63;;;;;;;12.21;58.04;101079.13;5147592;28;20415;-46
2022/04/22 05:55:40;;;;;;;21.92;14.60;;;;;;;12.29;57.88;101083.66;5135215;28;20418;-48
2022/04/22 05:58:40;;;;;;;24.88;14.05;;;;;;;12.63;57.67;101083.69;5147372;28;20432;-45
2022/04/22 06:01:15;;;;;;;25.33;14.48;;;;;;;12.96;57.19;101078.56;5143470;28;20506;-44
2022/04/22 06:03:47;;;;;;;21.33;13.32;;;;;;;13.06;57.25;101068.66;5142852;28;20885;-43
2022/04/22 06:06:20;;;;;;;22.08;13.05;;;;;;;13.09;57.28;101078.94;5143043;28;20890;-45
2022/04/22 06:11:42;;;;;;;24.80;13.63;;;;;;;13.41;57.07;101056.19;5155999;28;20424;-44
2022/04/22 06:14:14;;;;;;;23.00;11.88;;;;;;;14.20;56.04;101030.81;5137998;28;20396;-44
2022/04/22 06:16:48;;;;;;;22.00;11.50;;;;;;;15.52;54.69;101063.88;5127091;28;20857;-47
2022/04/22 06:19:21;;;;;;;17.50;10.05;;;;;;;16.35;53.71;101063.88;5129276;28;20421;-45
2022/04/22 06:21:54;;;;;;;18.23;10.63;;;;;;;16.80;53.12;101054.06;5126630;28;20466;-45
2022/04/22 06:24:26;;;;;;;15.77;10.03;;;;;;;17.23;52.62;101058.69;5128084;28;20416;-47
2022/04/22 06:26:58;;;;;;;20.35;11.23;;;;;;;17.67;52.02;101060.38;5127681;28;20597;-46
2022/04/22 06:29:31;;;;;;;15.20;9.97;;;;;;;18.06;51.19;101080.50;5139092;28;20940;-45
2022/04/22 06:32:07;;;;;;;17.80;9.82;;;;;;;18.21;50.63;101057.19;5143394;28;20411;-49
2022/04/22 06:34:40;;;;;;;15.23;9.35;;;;;;;18.38;50.10;101055.03;5143515;28;20498;-47
2022/04/22 06:37:12;;;;;;;15.77;9.32;;;;;;;19.00;49.34;101047.97;5140602;28;20823;-46
2022/04/22 06:48:20;;;;;;;15.63;7.60;;;;;;;19.88;47.22;101047.97;5134717;28;20552;-50
2022/04/22 06:50:56;;;;;;;15.75;8.82;;;;;;;20.09;46.63;101050.44;5152559;28;20421;-47
2022/04/22 06:53:30;;;;;;;16.45;8.18;;;;;;;20.10;46.67;101049.41;5151326;28;20423;-47
2022/04/22 06:56:04;;;;;;;14.80;7.40;;;;;;;20.35;46.07;101057.63;5198907;28;20758;-48
2022/04/22 06:58:38;;;;;;;17.92;8.15;;;;;;;20.11;45.99;101032.28;5144448;28;20912;-51
2022/04/22 07:01:11;;;;;;;16.27;7.70;;;;;;;20.39;45.38;101052.69;5136528;28;20416;-51
2022/04/22 07:03:46;;;;;;;15.15;7.93;;;;;;;20.26;45.40;101046.28;5126074;28;20448;-50
2022/04/22 07:06:19;;;;;;;13.25;6.95;;;;;;;20.25;45.10;101054.53;5125187;28;20535;-46
2022/04/22 07:08:52;;;;;;;14.05;7.53;;;;;;;20.08;45.13;101037.25;5191762;28;20462;-45
2022/04/22 07:11:26;;;;;;;15.43;7.82;;;;;;;20.21;44.95;101039.91;5151032;28;20517;-46
2022/04/22 07:14:01;;;;;;;15.52;7.32;;;;;;;20.39;44.72;101039.25;5146126;28;21008;-47
2022/04/22 07:16:34;;;;;;;13.27;7.55;;;;;;;20.62;44.33;101045.00;5138153;28;20798;-46
2022/04/22 07:19:09;;;;;;;13.57;7.13;;;;;;;20.65;44.05;101039.19;5130214;28;20431;-48
2022/04/22 07:21:42;;;;;;;14.50;7.15;;;;;;;20.60;43.95;101030.97;5125537;28;20462;-48
2022/04/22 07:24:15;;;;;;;12.38;6.82;;;;;;;20.11;44.31;101026.94;5129757;28;20570;-46
2022/04/22 07:26:48;;;;;;;13.45;7.10;;;;;;;19.91;44.46;101021.56;5144299;28;20571;-47
2022/04/22 07:29:22;;;;;;;11.23;6.78;;;;;;;19.97;44.46;101031.47;5146063;28;20468;-50
2022/04/22 07:31:55;;;;;;;13.10;7.00;;;;;;;20.02;44.27;101020.94;5133239;28;20464;-49
2022/04/22 07:34:29;;;;;;;11.40;6.93;;;;;;;20.34;44.03;101020.28;5125975;28;20535;-50
2022/04/22 07:37:02;;;;;;;14.52;6.60;;;;;;;20.47;43.80;101020.25;5128530;28;20541;-47
2022/04/22 07:39:38;;;;;;;15.35;6.80;;;;;;;20.21;44.03;101016.59;5128567;28;20466;-48
2022/04/22 07:42:17;;;;;;;10.20;6.47;;;;;;;20.07;44.06;101004.25;5124705;28;20523;-48
2022/04/22 07:47:42;;;;;;;13.43;6.22;;;;;;;20.25;43.68;101028.56;5139007;28;20471;-45
2022/04/22 07:50:17;;;;;;;13.07;6.90;;;;;;;20.12;43.97;101033.09;5125488;28;20497;-48
2022/04/22 07:52:50;;;;;;;11.02;6.30;;;;;;;20.12;43.85;101033.94;5131973;28;20428;-47
2022/04/22 07:55:22;;;;;;;11.32;6.05;;;;;;;20.08;43.90;101034.56;5126847;28;20501;-48
2022/04/22 07:57:56;;;;;;;11.47;6.37;;;;;;;19.84;43.89;101030.66;5131739;28;20570;-49
2022/04/22 08:00:28;;;;;;;19.45;5.75;;;;;;;19.69;44.23;101031.66;5134177;28;20404;-45
2022/04/22 08:03:01;;;;;;;8.80;5.93;;;;;;;19.70;44.17;101022.63;5128728;28;20431;-49
2022/04/22 08:05:35;;;;;;;11.48;6.80;;;;;;;19.61;44.15;101026.50;5129582;28;20918;-48
2022/04/22 08:08:08;;;;;;;13.63;6.53;;;;;;;19.38;44.31;101026.84;5132133;28;20464;-50
2022/04/22 08:10:40;;;;;;;9.18;5.93;;;;;;;19.15;44.69;101027.22;5212189;28;20501;-49
2022/04/22 08:13:50;;;;;;;10.38;6.53;;;;;;;19.04;44.75;101025.13;5167536;28;20472;-47
2022/04/22 08:16:22;;;;;;;8.40;5.60;;;;;;;19.15;44.62;101026.41;5149268;28;20434;-48
2022/04/22 08:18:55;;;;;;;11.98;5.60;;;;;;;19.35;44.49;101028.09;5131392;28;20474;-47
2022/04/22 08:21:33;;;;;;;10.10;5.72;;;;;;;19.38;44.25;101023.34;5135936;28;20503;-46
2022/04/22 08:24:10;;;;;;;10.52;5.63;;;;;;;19.17;44.55;101009.13;5147816;28;20406;-46
2022/04/22 08:26:42;;;;;;;9.63;5.30;;;;;;;19.22;44.57;101030.72;5134895;28;20416;-49
2022/04/22 08:29:15;;;;;;;11.30;5.57;;;;;;;19.12;44.59;101031.13;5183001;28;20840;-47
2022/04/22 08:31:48;;;;;;;10.93;5.73;;;;;;;18.83;44.96;101037.63;5131212;28;20419;-47
2022/04/22 08:34:21;;;;;;;10.32;5.72;;;;;;;18.96;44.97;101034.16;5148592;28;20422;-52
2022/04/22 08:36:54;;;;;;;11.88;5.55;;;;;;;18.58;45.20;101031.06;5148639;28;20418;-49
2022/04/22 08:39:27;;;;;;;8.70;5.25;;;;;;;18.41;45.53;101031.38;5148912;28;20822;-49
2022/04/22 08:42:02;;;;;;;9.85;5.30;;;;;;;18.18;45.44;101031.66;5149917;28;20434;-47
2022/04/22 08:44:38;;;;;;;11.13;5.60;;;;;;;17.86;45.81;101019.69;5135918;28;20854;-47
2022/04/22 08:50:02;;;;;;;10.63;5.18;;;;;;;17.62;45.71;101012.03;5132197;28;20463;-49
2022/04/22 08:52:37;;;;;;;10.73;5.38;;;;;;;17.39;45.83;101020.25;5136343;28;20917;-50
2022/04/22 08:55:12;;;;;;;8.82;5.45;;;;;;;17.00;46.07;100995.63;5124890;27;20462;-47
2022/04/22 08:57:47;;;;;;;13.55;6.15;;;;;;;16.96;46.09;101009.53;5138013;28;20468;-48
2022/04/22 09:00:22;;;;;;;11.20;5.40;;;;;;;17.08;45.44;100997.34;5124730;28;20559;-47
2022/04/22 09:02:57;;;;;;;11.55;5.07;;;;;;;16.95;45.67;101006.03;5133691;27;20618;-46
2022/04/22 09:05:30;;;;;;;9.85;5.85;;;;;;;16.76;45.91;100998.63;5136128;27;20863;-47
2022/04/22 09:08:07;;;;;;;10.50;5.47;;;;;;;16.38;46.01;100977.38;5136171;27;20479;-48
2022/04/22 09:10:40;;;;;;;14.30;5.70;;;;;;;16.32;46.04;100989.63;5145771;28;20486;-47
2022/04/22 09:13:26;;;;;;;12.25;5.35;;;;;;;16.10;46.30;100962.03;5164233;28;20418;-47
2022/04/22 09:15:59;;;;;;;9.27;4.90;;;;;;;15.94;46.06;100926.75;5133149;28;20393;-47
2022/04/22 09:18:35;;;;;;;10.55;5.35;;;;;;;16.20;46.28;100996.41;5143207;27;20412;-45
2022/04/22 09:21:14;;;;;;;10.98;5.28;;;;;;;16.19;46.37;101001.91;5132680;27;20423;-48
2022/04/22 09:23:48;;;;;;;10.98;5.57;;;;;;;16.23;46.04;100993.38;5124012;28;20442;-47
2022/04/22 09:26:22;;;;;;;14.90;5.85;;;;;;;16.37;46.04;100979.22;5146762;28;20788;-45
2022/04/22 09:28:59;;;;;;;7.97;5.00;;;;;;;16.52;45.93;100992.53;5139442;27;20447;-48
2022/04/22 09:31:44;;;;;;;7.43;4.63;;;;;;;16.54;45.92;101000.38;5138537;28;20409;-50
2022/04/22 09:34:32;;;;;;;13.00;4.78;;;;;;;16.56;45.97;100995.66;5138175;27;20407;-50
2022/04/22 09:43:00;;;;;;;7.10;4.70;;;;;;;16.28;46.24;100977.66;5141313;28;20876;-46
2022/04/22 09:45:38;;;;;;;13.80;4.95;;;;;;;16.27;46.21;100962.69;5125776;28;20743;-45
2022/04/22 09:48:16;;;;;;;5.93;4.13;;;;;;;16.59;45.55;100981.97;5130379;27;20512;-45
2022/04/22 09:50:52;;;;;;;10.10;4.07;;;;;;;16.57;45.38;100947.50;5114130;28;20484;-46
2022/04/22 09:53:33;;;;;;;10.57;3.92;;;;;;;16.81;45.19;100961.53;5148744;27;20857;-52
2022/04/22 09:56:10;;;;;;;6.20;3.87;;;;;;;16.97;45.04;100974.66;5128066;27;20428;-49
2022/04/22 09:58:43;;;;;;;6.10;4.03;;;;;;;16.83;45.01;100959.50;5125351;28;20985;-51
2022/04/22 10:01:16;;;;;;;8.65;4.53;;;;;;;16.77;44.99;100952.25;5154592;28;20443;-51
2022/04/22 10:03:49;;;;;;;10.23;4.57;;;;;;;16.82;44.85;100952.53;5132848;28;20922;-46
2022/04/22 10:06:21;;;;;;;8.85;4.65;;;;;;;16.83;44.60;100925.66;5140734;28;20422;-48
2022/04/22 10:08:57;;;;;;;6.67;4.30;;;;;;;17.08;44.29;100969.84;5128582;28;21013;-46
2022/04/22 10:11:31;;;;;;;8.55;4.25;;;;;;;17.05;44.07;100945.19;5134424;28;20424;-46
2022/04/22 10:14:06;;;;;;;8.18;4.50;;;;;;;17.10;43.96;100933.94;5128886;28;20491;-44
2022/04/22 10:16:39;;;;;;;6.20;3.38;;;;;;;16.96;44.12;100940.97;5134104;28;20404;-44
2022/04/22 10:19:12;;;;;;;6.30;4.28;;;;;;;16.74;44.16;100941.94;5128691;28;20415;-44
2022/04/22 10:21:47;;;;;;;9.88;4.10;;;;;;;16.75;44.09;100943.56;5131032;27;20529;-50
2022/04/22 10:24:21;;;;;;;7.88;3.90;;;;;;;16.79;43.90;100948.41;5156800;28;20469;-47
2022/04/22 10:26:55;;;;;;;9.15;3.80;;;;;;;16.87;43.76;100939.44;5152734;28;20506;-47
2022/04/22 10:29:30;;;;;;;5.20;3.80;;;;;;;16.82;43.76;100939.19;5131054;28;20506;-46
2022/04/22 10:32:05;;;;;;;6.97;3.58;;;;;;;16.95;43.61;100943.84;5130107;28;20413;-47
2022/04/22 10:34:40;;;;;;;6.80;3.30;;;;;;;16.89;43.49;100934.75;5169963;28;20490;-49
2022/04/22 10:37:22;;;;;;;6.60;3.58;;;;;;;16.92;43.33;100931.72;5129222;28;20426;-46
2022/04/22 10:39:56;;;;;;;7.28;3.78;;;;;;;16.81;43.06;100929.53;5131516;28;20419;-45
2022/04/22 10:42:35;;;;;;;9.88;3.75;;;;;;;16.93;42.91;100937.88;5140135;28;20499;-46
2022/04/22 10:48:00;;;;;;;9.40;3.50;;;;;;;16.95;42.64;100927.84;5194488;28;20398;-45
2022/04/22 10:50:34;;;;;;;7.95;3.47;;;;;;;16.87;42.70;100920.75;5211398;28;20425;-48
2022/04/22 10:53:09;;;;;;;5.97;3.60;;;;;;;17.02;42.60;100918.06;5124379;28;20411;-47
2022/04/22 10:55:42;;;;;;;5.30;3.17;;;;;;;17.24;42.14;100924.22;5139589;28;20502;-44
2022/04/22 10:58:26;;;;;;;8.32;3.40;;;;;;;17.09;41.97;100894.09;5146804;28;20766;-45
2022/04/22 11:00:58;;;;;;;5.15;3.72;;;;;;;17.31;41.95;100922.41;5145748;28;20508;-47
2022/04/22 11:03:35;;;;;;;7.35;3.50;;;;;;;17.35;41.82;100921.03;5226218;28;21082;-47
2022/04/22 11:06:12;;;;;;;6.38;3.28;;;;;;;17.40;41.75;100921.25;5137888;28;20424;-46
2022/04/22 11:09:02;;;;;;;9.80;3.50;;;;;;;17.34;41.72;100922.03;5124819;28;20572;-47
2022/04/22 11:11:41;;;;;;;5.82;3.00;;;;;;;17.38;41.64;100912.66;5146761;28;20418;-48
2022/04/22 11:14:21;;;;;;;6.90;3.53;;;;;;;17.33;41.74;100915.06;5140245;28;20572;-47
2022/04/22 11:16:55;;;;;;;6.90;3.33;;;;;;;17.41;41.57;100917.59;5143195;28;20874;-48
2022/04/22 11:19:28;;;;;;;7.22;3.38;;;;;;;17.44;41.55;100917.22;5140623;28;20502;-46
2022/04/22 11:22:01;;;;;;;6.40;3.28;;;;;;;17.58;41.51;100919.97;5141043;28;20870;-46
2022/04/22 11:24:34;;;;;;;6.03;3.25;;;;;;;17.64;41.19;100904.00;5145713;28;20407;-51
2022/04/22 11:27:10;;;;;;;7.65;3.25;;;;;;;17.77;41.10;100905.97;5144492;28;20901;-45
2022/04/22 11:29:44;;;;;;;4.65;2.85;;;;;;;17.71;40.98;100891.53;5134652;28;20437;-50
2022/04/22 11:32:21;;;;;;;7.68;3.60;;;;;;;17.85;40.91;100911.16;5140376;28;20437;-48
2022/04/22 11:35:21;;;;;;;4.70;2.57;;;;;;;17.78;40.76;100883.59;5144146;28;20529;-46
2022/04/22 11:38:00;;;;;;;8.43;3.67;;;;;;;17.95;40.50;100884.91;5137913;28;20450;-46
2022/04/22 11:40:37;;;;;;;7.65;2.90;;;;;;;17.91;40.42;100859.63;5153406;28;20419;-45
2022/04/22 11:43:11;;;;;;;5.15;2.80;;;;;;;18.11;40.22;100885.63;5141068;28;20886;-46
2022/04/22 11:45:48;;;;;;;5.35;3.28;;;;;;;18.09;40.26;100883.16;5143773;28;20438;-51
2022/04/22 11:48:22;;;;;;;9.60;3.13;;;;;;;18.16;40.18;100878.66;5145671;28;20894;-45
2022/04/22 11:51:00;;;;;;;6.05;3.00;;;;;;;17.92;40.09;100868.47;5143094;28;20499;-47
2022/04/22 11:53:32;;;;;;;6.30;3.22;;;;;;;17.84;40.29;100871.28;5145293;28;20423;-47
2022/04/22 11:56:06;;;;;;;4.32;2.60;;;;;;;17.97;40.28;100880.22;5142403;28;21008;-45
2022/04/22 11:58:39;;;;;;;4.23;2.50;;;;;;;18.10;39.98;100867.94;5143854;28;20422;-46
2022/04/22 12:06:52;;;;;;;5.47;2.50;;;;;;;17.94;39.83;100864.56;5189158;28;20429;-49
2022/04/22 12:09:25;;;;;;;7.93;3.00;;;;;;;17.75;39.82;100851.91;5176784;28;20443;-46
2022/04/22 12:12:00;;;;;;;3.78;2.38;;;;;;;17.80;39.64;100862.00;5146680;28;20425;-46
2022/04/22 12:14:33;;;;;;;4.35;2.50;;;;;;;17.75;39.58;100846.56;5204191;28;20429;-45
2022/04/22 12:17:07;;;;;;;3.95;2.60;;;;;;;17.88;39.33;100854.66;5169368;28;20418;-47
2022/04/22 12:19:39;;;;;;;8.43;2.75;;;;;;;17.95;39.10;100831.47;5189345;28;20747;-44
2022/04/22 12:22:12;;;;;;;3.67;2.40;;;;;;;18.08;39.01;100841.41;5187720;28;20775;-48
2022/04/22 12:25:10;;;;;;;3.78;2.70;;;;;;;18.16;38.83;100835.88;5177957;28;20414;-51
2022/04/22 12:27:44;;;;;;;7.18;2.30;;;;;;;18.31;38.63;100827.72;5159187;28;20429;-46
2022/04/22 12:30:16;;;;;;;2.95;2.38;;;;;;;18.29;38.48;100827.09;5145686;28;20867;-47
2022/04/22 12:32:55;;;;;;;5.00;2.67;;;;;;;18.30;38.26;100830.59;5153074;28;20438;-48
2022/04/22 12:35:27;;;;;;;6.10;3.03;;;;;;;18.34;38.18;100813.94;5162700;28;20515;-45
2022/04/22 12:38:09;;;;;;;7.40;2.60;;;;;;;18.51;37.95;100816.25;5159782;28;20429;-46
2022/04/22 12:40:49;;;;;;;3.80;2.50;;;;;;;18.26;37.83;100784.72;5166915;28;20429;-48
2022/04/22 12:43:26;;;;;;;6.87;2.80;;;;;;;18.53;37.93;100809.69;5171665;28;20931;-46
2022/04/22 12:52:15;;;;;;;7.38;2.75;;;;;;;18.92;37.36;100807.28;5147982;28;20411;-50
2022/04/22 12:54:49;;;;;;;6.95;2.85;;;;;;;18.79;37.41;100792.84;5179187;28;20440;-51
2022/04/22 12:57:23;;;;;;;7.65;2.67;;;;;;;18.77;37.32;100805.63;5169081;28;20859;-47
2022/04/22 12:59:57;;;;;;;4.43;2.75;;;;;;;18.75;37.34;100802.31;5192789;28;20837;-47